createdAt,value
2018-07-20T00:00:48.594Z,70.81
2018-07-20T00:01:48.561Z,70.81
2018-07-20T00:02:48.525Z,70.81
2018-07-20T00:03:48.493Z,71.00
2018-07-20T00:04:48.459Z,71.77
2018-07-20T00:05:48.433Z,71.48
2018-07-20T00:06:48.404Z,71.96
2018-07-20T00:07:48.374Z,71.77
2018-07-20T00:08:48.337Z,71.67
2018-07-20T00:09:48.301Z,71.58
2018-07-20T00:10:48.270Z,71.77
2018-07-20T00:11:48.241Z,71.10
2018-07-20T00:12:48.213Z,71.19
2018-07-20T00:13:48.240Z,71.10
2018-07-20T00:14:48.150Z,71.67
2018-07-20T00:15:49.081Z,71.58
2018-07-20T00:16:48.132Z,71.67
2018-07-20T00:17:48.055Z,71.48
2018-07-20T00:18:48.024Z,71.64
2018-07-20T00:19:47.984Z,71.10
2018-07-20T00:20:47.991Z,71.67
2018-07-20T00:21:47.922Z,71.00
2018-07-20T00:22:47.894Z,71.77
2018-07-20T00:23:48.123Z,71.39
2018-07-20T00:24:47.828Z,71.77
2018-07-20T00:25:47.796Z,71.25
2018-07-20T00:26:47.768Z,71.83
2018-07-20T00:27:47.735Z,71.73
2018-07-20T00:28:47.701Z,71.45
2018-07-20T00:29:47.668Z,71.93
2018-07-20T00:30:47.666Z,71.73
2018-07-20T00:31:47.608Z,71.06
2018-07-20T00:32:47.575Z,71.93
2018-07-20T00:33:47.545Z,71.83
2018-07-20T00:34:47.514Z,71.64
2018-07-20T00:35:47.485Z,71.16
2018-07-20T00:36:47.451Z,71.73
2018-07-20T00:37:47.431Z,71.83
2018-07-20T00:38:47.416Z,71.35
2018-07-20T00:39:47.355Z,71.25
2018-07-20T00:40:47.317Z,71.93
2018-07-20T00:41:47.290Z,72.41
2018-07-20T00:42:47.260Z,72.47
2018-07-20T00:43:47.231Z,72.31
2018-07-20T00:44:47.192Z,72.60
2018-07-20T00:45:47.161Z,72.28
2018-07-20T00:46:47.127Z,72.41
2018-07-20T00:47:47.100Z,72.47
2018-07-20T00:48:47.069Z,72.28
2018-07-20T00:49:47.031Z,72.28
2018-07-20T00:50:47.003Z,72.18
2018-07-20T00:51:46.981Z,72.28
2018-07-20T00:52:46.936Z,72.75
2018-07-20T00:53:46.911Z,72.37
2018-07-20T00:54:46.879Z,73.24
2018-07-20T00:55:46.840Z,72.85
2018-07-20T00:56:46.808Z,73.46
2018-07-20T00:57:46.827Z,73.04
2018-07-20T00:58:46.747Z,72.95
2018-07-20T00:59:46.719Z,72.95
2018-07-20T01:00:46.683Z,72.47
2018-07-20T01:01:46.693Z,72.18
2018-07-20T01:02:46.621Z,72.95
2018-07-20T01:03:46.621Z,72.66
2018-07-20T01:04:46.551Z,72.66
2018-07-20T01:05:46.533Z,72.75
2018-07-20T01:06:46.486Z,73.14
2018-07-20T01:07:46.455Z,72.85
2018-07-20T01:08:46.426Z,72.37
2018-07-20T01:09:46.389Z,72.47
2018-07-20T01:10:46.359Z,73.04
2018-07-20T01:11:46.331Z,73.24
2018-07-20T01:12:46.307Z,72.37
2018-07-20T01:13:46.269Z,72.95
2018-07-20T01:14:46.231Z,72.95
2018-07-20T01:15:46.204Z,72.95
2018-07-20T01:16:46.168Z,73.14
2018-07-20T01:17:46.139Z,72.95
2018-07-20T01:18:46.120Z,72.75
2018-07-20T01:19:46.095Z,72.75
2018-07-20T01:20:46.040Z,72.37
2018-07-20T01:21:46.009Z,72.37
2018-07-20T01:22:45.978Z,73.04
2018-07-20T01:23:45.948Z,72.95
2018-07-20T01:24:45.927Z,73.14
2018-07-20T01:25:45.883Z,73.33
2018-07-20T01:26:45.854Z,72.95
2018-07-20T01:27:45.816Z,73.04
2018-07-20T01:28:45.786Z,73.04
2018-07-20T01:29:45.758Z,73.04
2018-07-20T01:30:45.737Z,73.24
2018-07-20T01:31:45.692Z,73.68
2018-07-20T01:32:46.375Z,74.26
2018-07-20T01:33:45.639Z,74.06
2018-07-20T01:34:45.595Z,74.19
2018-07-20T01:35:45.568Z,74.16
2018-07-20T01:36:45.527Z,74.48
2018-07-20T01:37:45.508Z,74.06
2018-07-20T01:38:45.464Z,74.73
2018-07-20T01:39:45.437Z,74.44
2018-07-20T01:40:45.403Z,74.44
2018-07-20T01:41:45.371Z,75.12
2018-07-20T01:42:45.342Z,75.02
2018-07-20T01:43:45.308Z,75.02
2018-07-20T01:44:45.274Z,75.02
2018-07-20T01:45:45.240Z,74.44
2018-07-20T01:46:45.206Z,74.83
2018-07-20T01:47:45.176Z,74.83
2018-07-20T01:48:45.146Z,75.79
2018-07-20T01:49:45.112Z,75.79
2018-07-20T01:50:45.081Z,75.50
2018-07-20T01:51:45.057Z,75.60
2018-07-20T01:52:45.020Z,75.12
2018-07-20T01:53:44.983Z,74.73
2018-07-20T01:54:44.956Z,75.02
2018-07-20T01:55:44.920Z,75.79
2018-07-20T01:56:44.889Z,75.60
2018-07-20T01:57:44.856Z,75.60
2018-07-20T01:58:44.843Z,75.98
2018-07-20T01:59:44.793Z,75.60
2018-07-20T02:00:44.755Z,76.46
2018-07-20T02:01:44.726Z,76.46
2018-07-20T02:02:44.694Z,76.17
2018-07-20T02:03:44.664Z,76.17
2018-07-20T02:04:44.632Z,76.07
2018-07-20T02:05:44.603Z,76.17
2018-07-20T02:06:44.563Z,76.17
2018-07-20T02:07:44.542Z,76.56
2018-07-20T02:08:44.506Z,76.37
2018-07-20T02:09:44.470Z,76.17
2018-07-20T02:10:44.441Z,76.84
2018-07-20T02:11:44.402Z,76.37
2018-07-20T02:12:44.371Z,76.27
2018-07-20T02:13:44.343Z,76.94
2018-07-20T02:14:44.312Z,76.94
2018-07-20T02:15:44.283Z,76.65
2018-07-20T02:16:44.261Z,76.07
2018-07-20T02:17:44.212Z,76.37
2018-07-20T02:18:44.181Z,76.07
2018-07-20T02:19:44.150Z,75.89
2018-07-20T02:20:44.113Z,76.37
2018-07-20T02:21:44.079Z,76.17
2018-07-20T02:22:44.053Z,76.46
2018-07-20T02:23:44.025Z,76.46
2018-07-20T02:24:43.984Z,76.56
2018-07-20T02:25:43.950Z,77.04
2018-07-20T02:26:43.955Z,76.17
2018-07-20T02:27:43.886Z,76.75
2018-07-20T02:28:43.921Z,76.46
2018-07-20T02:29:43.823Z,76.65
2018-07-20T02:30:43.798Z,76.46
2018-07-20T02:31:43.764Z,76.84
2018-07-20T02:32:43.726Z,77.86
2018-07-20T02:33:43.693Z,78.44
2018-07-20T02:34:43.668Z,78.53
2018-07-20T02:35:43.630Z,79.49
2018-07-20T02:36:43.608Z,79.07
2018-07-20T02:37:43.564Z,79.45
2018-07-20T02:38:43.532Z,79.45
2018-07-20T02:39:43.502Z,80.32
2018-07-20T02:40:43.471Z,80.60
2018-07-20T02:41:43.435Z,80.70
2018-07-20T02:42:43.417Z,80.51
2018-07-20T02:43:43.651Z,81.23
2018-07-20T02:44:43.342Z,81.43
2018-07-20T02:45:43.312Z,81.23
2018-07-20T02:46:43.272Z,81.33
2018-07-20T02:47:43.244Z,81.13
2018-07-20T02:48:43.209Z,80.56
2018-07-20T02:49:43.217Z,80.76
2018-07-20T02:50:43.145Z,81.13
2018-07-20T02:51:43.139Z,81.81
2018-07-20T02:52:43.084Z,81.90
2018-07-20T02:53:43.047Z,82.48
2018-07-20T02:54:43.016Z,82.57
2018-07-20T02:55:43.010Z,82.67
2018-07-20T02:56:42.947Z,82.29
2018-07-20T02:57:42.915Z,82.29
2018-07-20T02:58:42.884Z,83.44
2018-07-20T02:59:42.862Z,83.82
2018-07-20T03:00:42.820Z,83.05
2018-07-20T03:01:42.789Z,82.96
2018-07-20T03:02:42.768Z,83.25
2018-07-20T03:03:42.725Z,82.96
2018-07-20T03:04:42.689Z,83.09
2018-07-20T03:05:42.656Z,83.15
2018-07-20T03:06:42.622Z,83.44
2018-07-20T03:07:42.598Z,83.72
2018-07-20T03:08:42.588Z,83.63
2018-07-20T03:09:42.527Z,82.96
2018-07-20T03:10:42.496Z,83.25
2018-07-20T03:11:42.461Z,83.34
2018-07-20T03:12:42.440Z,83.72
2018-07-20T03:13:42.401Z,83.53
2018-07-20T03:14:42.364Z,83.82
2018-07-20T03:15:42.366Z,83.92
2018-07-20T03:16:42.303Z,83.72
2018-07-20T03:17:42.268Z,83.72
2018-07-20T03:18:42.239Z,83.82
2018-07-20T03:19:42.205Z,84.30
2018-07-20T03:20:42.172Z,84.20
2018-07-20T03:21:42.152Z,84.01
2018-07-20T03:22:42.109Z,84.30
2018-07-20T03:23:42.074Z,84.58
2018-07-20T03:24:42.037Z,84.39
2018-07-20T03:25:42.011Z,84.88
2018-07-20T03:26:41.973Z,85.06
2018-07-20T03:27:41.945Z,85.06
2018-07-20T03:28:41.923Z,84.30
2018-07-20T03:29:41.876Z,84.68
2018-07-20T03:30:41.846Z,84.68
2018-07-20T03:31:41.809Z,84.58
2018-07-20T03:32:41.863Z,84.78
2018-07-20T03:33:41.747Z,84.58
2018-07-20T03:34:41.714Z,84.58
2018-07-20T03:35:41.681Z,84.58
2018-07-20T03:36:41.647Z,84.39
2018-07-20T03:37:41.623Z,84.49
2018-07-20T03:38:41.591Z,84.30
2018-07-20T03:39:41.547Z,84.78
2018-07-20T03:40:41.524Z,85.35
2018-07-20T03:41:41.488Z,84.97
2018-07-20T03:42:41.453Z,85.54
2018-07-20T03:43:41.423Z,86.60
2018-07-20T03:44:41.386Z,85.54
2018-07-20T03:45:41.353Z,86.12
2018-07-20T03:46:41.322Z,86.36
2018-07-20T03:47:41.289Z,86.60
2018-07-20T03:48:41.254Z,86.46
2018-07-20T03:49:41.249Z,87.13
2018-07-20T03:50:41.192Z,87.23
2018-07-20T03:51:41.159Z,87.41
2018-07-20T03:52:41.125Z,87.41
2018-07-20T03:53:41.096Z,87.51
2018-07-20T03:54:41.065Z,87.51
2018-07-20T03:55:41.031Z,87.51
2018-07-20T03:56:41.037Z,87.61
2018-07-20T03:57:40.966Z,88.18
2018-07-20T03:58:40.936Z,88.18
2018-07-20T03:59:40.897Z,88.76
2018-07-20T04:00:40.866Z,88.56
2018-07-20T04:01:40.843Z,88.09
2018-07-20T04:02:40.810Z,88.28
2018-07-20T04:03:40.769Z,88.28
2018-07-20T04:04:40.737Z,88.28
2018-07-20T04:05:40.702Z,88.18
2018-07-20T04:06:40.670Z,88.56
2018-07-20T04:07:40.633Z,89.33
2018-07-20T04:08:40.606Z,89.43
2018-07-20T04:09:40.571Z,89.43
2018-07-20T04:10:40.536Z,89.62
2018-07-20T04:11:40.503Z,89.23
2018-07-20T04:12:40.470Z,88.56
2018-07-20T04:13:40.437Z,89.43
2018-07-20T04:14:40.405Z,89.23
2018-07-20T04:15:40.406Z,89.43
2018-07-20T04:16:40.344Z,89.90
2018-07-20T04:17:40.306Z,89.33
2018-07-20T04:18:40.282Z,89.72
2018-07-20T04:19:40.248Z,89.90
2018-07-20T04:20:40.214Z,90.29
2018-07-20T04:21:40.176Z,89.90
2018-07-20T04:22:40.165Z,89.72
2018-07-20T04:23:40.117Z,90.48
2018-07-20T04:24:40.079Z,90.58
2018-07-20T04:25:40.051Z,90.58
2018-07-20T04:26:40.122Z,90.58
2018-07-20T04:27:39.980Z,90.48
2018-07-20T04:28:39.951Z,90.48
2018-07-20T04:29:39.921Z,90.86
2018-07-20T04:30:39.879Z,91.05
2018-07-20T04:31:39.857Z,90.58
2018-07-20T04:32:39.815Z,90.77
2018-07-20T04:33:39.785Z,90.77
2018-07-20T04:34:39.753Z,90.19
2018-07-20T04:35:39.716Z,90.19
2018-07-20T04:36:39.691Z,90.58
2018-07-20T04:37:39.655Z,89.81
2018-07-20T04:38:39.632Z,90.09
2018-07-20T04:39:39.653Z,89.62
2018-07-20T04:40:39.558Z,89.72
2018-07-20T04:41:39.520Z,89.43
2018-07-20T04:42:39.491Z,89.43
2018-07-20T04:43:39.459Z,89.14
2018-07-20T04:44:39.418Z,88.95
2018-07-20T04:45:39.570Z,89.28
2018-07-20T04:46:39.357Z,88.51
2018-07-20T04:47:39.336Z,88.70
2018-07-20T04:48:39.292Z,88.70
2018-07-20T04:49:39.262Z,88.70
2018-07-20T04:50:39.229Z,88.42
2018-07-20T04:51:39.193Z,88.51
2018-07-20T04:52:39.160Z,88.51
2018-07-20T04:53:39.142Z,88.32
2018-07-20T04:54:39.804Z,88.13
2018-07-20T04:55:39.064Z,88.61
2018-07-20T04:56:39.031Z,88.23
2018-07-20T04:57:39.003Z,87.46
2018-07-20T04:58:38.986Z,87.27
2018-07-20T04:59:38.972Z,86.98
2018-07-20T05:00:38.902Z,87.37
2018-07-20T05:01:38.870Z,87.37
2018-07-20T05:02:38.837Z,87.17
2018-07-20T05:03:38.857Z,87.84
2018-07-20T05:04:38.767Z,87.08
2018-07-20T05:05:38.737Z,86.98
2018-07-20T05:06:38.710Z,86.45
2018-07-20T05:07:38.671Z,86.54
2018-07-20T05:08:38.637Z,86.16
2018-07-20T05:09:38.605Z,85.01
2018-07-20T05:10:38.573Z,84.91
2018-07-20T05:11:38.542Z,84.95
2018-07-20T05:12:38.511Z,84.77
2018-07-20T05:13:38.487Z,84.19
2018-07-20T05:14:38.449Z,84.09
2018-07-20T05:15:38.413Z,83.94
2018-07-20T05:16:38.392Z,83.27
2018-07-20T05:17:38.349Z,82.89
2018-07-20T05:18:38.315Z,82.98
2018-07-20T05:19:38.286Z,83.51
2018-07-20T05:20:38.257Z,82.03
2018-07-20T05:21:38.217Z,82.26
2018-07-20T05:22:38.204Z,81.49
2018-07-20T05:23:38.156Z,81.59
2018-07-20T05:24:38.125Z,81.10
2018-07-20T05:25:38.089Z,80.53
2018-07-20T05:26:38.058Z,79.28
2018-07-20T05:27:38.031Z,79.22
2018-07-20T05:28:37.996Z,78.27
2018-07-20T05:29:37.961Z,78.27
2018-07-20T05:30:37.934Z,77.88
2018-07-20T05:31:37.913Z,76.92
2018-07-20T05:32:37.891Z,76.15
2018-07-20T05:33:37.835Z,76.09
2018-07-20T05:34:37.806Z,75.90
2018-07-20T05:35:37.775Z,75.04
2018-07-20T05:36:37.746Z,74.11
2018-07-20T05:37:37.710Z,74.79
2018-07-20T05:38:37.684Z,74.21
2018-07-20T05:39:37.664Z,73.15
2018-07-20T05:40:37.617Z,73.35
2018-07-20T05:41:37.584Z,73.06
2018-07-20T05:42:37.559Z,72.67
2018-07-20T05:43:37.549Z,72.80
2018-07-20T05:44:37.495Z,71.94
2018-07-20T05:45:37.464Z,71.65
2018-07-20T05:46:37.433Z,71.94
2018-07-20T05:47:37.397Z,69.85
2018-07-20T05:48:37.373Z,69.18
2018-07-20T05:49:37.334Z,68.03
2018-07-20T05:50:37.303Z,67.97
2018-07-20T05:51:37.275Z,67.97
2018-07-20T05:52:37.838Z,68.26
2018-07-20T05:53:37.210Z,67.90
2018-07-20T05:54:37.197Z,68.10
2018-07-20T05:55:37.840Z,67.81
2018-07-20T05:56:37.895Z,67.90
2018-07-20T05:57:37.086Z,67.65
2018-07-20T05:58:37.062Z,67.65
2018-07-20T05:59:37.031Z,66.69
2018-07-20T06:00:37.005Z,66.78
2018-07-20T06:01:36.964Z,66.59
2018-07-20T06:02:36.935Z,66.69
2018-07-20T06:03:36.906Z,66.04
2018-07-20T06:04:36.874Z,66.04
2018-07-20T06:05:36.910Z,66.52
2018-07-20T06:06:36.820Z,66.72
2018-07-20T06:07:37.146Z,66.24
2018-07-20T06:08:36.752Z,65.95
2018-07-20T06:09:36.724Z,65.85
2018-07-20T06:10:36.700Z,65.85
2018-07-20T06:11:36.665Z,65.85
2018-07-20T06:12:36.636Z,64.98
2018-07-20T06:13:36.607Z,65.11
2018-07-20T06:14:36.591Z,64.92
2018-07-20T06:15:36.544Z,64.82
2018-07-20T06:16:36.516Z,64.15
2018-07-20T06:17:36.490Z,64.15
2018-07-20T06:18:36.456Z,63.76
2018-07-20T06:19:36.428Z,63.95
2018-07-20T06:20:36.404Z,63.98
2018-07-20T06:21:36.366Z,63.12
2018-07-20T06:22:36.336Z,62.15
2018-07-20T06:23:36.307Z,61.96
2018-07-20T06:24:36.283Z,61.09
2018-07-20T06:25:36.246Z,60.83
2018-07-20T06:26:36.225Z,60.44
2018-07-20T06:27:36.183Z,60.25
2018-07-20T06:28:36.155Z,60.35
2018-07-20T06:29:36.610Z,59.77
2018-07-20T06:30:36.099Z,59.96
2018-07-20T06:31:36.070Z,60.16
2018-07-20T06:32:36.044Z,60.35
2018-07-20T06:33:36.006Z,60.38
2018-07-20T06:34:35.984Z,60.09
2018-07-20T06:35:35.954Z,59.41
2018-07-20T06:36:35.923Z,59.41
2018-07-20T06:37:35.889Z,59.02
2018-07-20T06:38:35.866Z,59.12
2018-07-20T06:39:35.833Z,59.41
2018-07-20T06:40:35.825Z,58.64
2018-07-20T06:41:35.772Z,58.73
2018-07-20T06:42:35.746Z,59.02
2018-07-20T06:43:35.713Z,59.05
2018-07-20T06:44:35.697Z,58.76
2018-07-20T06:45:35.662Z,58.09
2018-07-20T06:46:35.626Z,57.63
2018-07-20T06:47:35.600Z,57.82
2018-07-20T06:48:35.569Z,57.54
2018-07-20T06:49:35.543Z,57.54
2018-07-20T06:50:35.514Z,57.15
2018-07-20T06:51:35.492Z,56.76
2018-07-20T06:52:35.453Z,56.40
2018-07-20T06:53:35.430Z,55.73
2018-07-20T06:54:35.393Z,55.36
2018-07-20T06:55:35.371Z,55.07
2018-07-20T06:56:35.339Z,55.36
2018-07-20T06:57:35.314Z,54.21
2018-07-20T06:58:35.278Z,53.85
2018-07-20T06:59:35.255Z,54.03
2018-07-20T07:00:35.227Z,53.85
2018-07-20T07:01:35.199Z,53.36
2018-07-20T07:02:35.169Z,53.45
2018-07-20T07:03:35.138Z,53.49
2018-07-20T07:04:35.110Z,52.61
2018-07-20T07:05:35.080Z,52.25
2018-07-20T07:06:35.057Z,51.28
2018-07-20T07:07:35.028Z,50.92
2018-07-20T07:08:35.025Z,49.95
2018-07-20T07:09:35.013Z,49.19
2018-07-20T07:10:34.945Z,49.68
2018-07-20T07:11:34.917Z,50.14
2018-07-20T07:12:34.890Z,50.46
2018-07-20T07:13:34.862Z,50.26
2018-07-20T07:14:34.831Z,49.77
2018-07-20T07:15:34.801Z,49.39
2018-07-20T07:16:34.784Z,49.39
2018-07-20T07:17:34.750Z,48.69
2018-07-20T07:18:34.721Z,49.49
2018-07-20T07:19:34.695Z,48.90
2018-07-20T07:20:34.674Z,48.90
2018-07-20T07:21:34.639Z,49.00
2018-07-20T07:22:34.612Z,48.64
2018-07-20T07:23:34.638Z,47.66
2018-07-20T07:24:34.558Z,47.28
2018-07-20T07:25:34.554Z,46.72
2018-07-20T07:26:34.505Z,46.52
2018-07-20T07:27:34.470Z,46.42
2018-07-20T07:28:34.445Z,45.87
2018-07-20T07:29:34.418Z,45.77
2018-07-20T07:30:34.397Z,45.48
2018-07-20T07:31:34.375Z,45.98
2018-07-20T07:32:34.339Z,45.60
2018-07-20T07:33:34.312Z,46.08
2018-07-20T07:34:34.282Z,45.11
2018-07-20T07:35:34.260Z,44.72
2018-07-20T07:36:34.227Z,45.69
2018-07-20T07:37:34.238Z,45.98
2018-07-20T07:38:34.183Z,45.40
2018-07-20T07:39:34.148Z,44.35
2018-07-20T07:40:34.126Z,44.74
2018-07-20T07:41:34.097Z,44.94
2018-07-20T07:42:34.072Z,43.70
2018-07-20T07:43:34.050Z,43.79
2018-07-20T07:44:34.045Z,43.11
2018-07-20T07:45:33.988Z,42.63
2018-07-20T07:46:33.963Z,42.91
2018-07-20T07:47:33.940Z,42.65
2018-07-20T07:48:33.913Z,42.35
2018-07-20T07:49:33.989Z,41.77
2018-07-20T07:50:33.871Z,41.96
2018-07-20T07:51:33.835Z,42.16
2018-07-20T07:52:33.805Z,41.57
2018-07-20T07:53:33.786Z,41.99
2018-07-20T07:54:33.753Z,41.30
2018-07-20T07:55:33.729Z,40.55
2018-07-20T07:56:33.706Z,39.86
2018-07-20T07:57:33.684Z,38.61
2018-07-20T07:58:33.650Z,38.61
2018-07-20T07:59:33.624Z,38.63
2018-07-20T08:00:33.595Z,38.24
2018-07-20T08:01:33.571Z,38.65
2018-07-20T08:02:33.548Z,37.96
2018-07-20T08:03:33.586Z,37.96
2018-07-20T08:04:33.508Z,37.27
2018-07-20T08:05:33.469Z,37.29
2018-07-20T08:06:33.445Z,37.48
2018-07-20T08:07:33.420Z,38.38
2018-07-20T08:08:33.392Z,37.67
2018-07-20T08:09:33.419Z,37.40
2018-07-20T08:10:33.345Z,36.82
2018-07-20T08:11:33.319Z,37.01
2018-07-20T08:12:33.292Z,36.34
2018-07-20T08:13:33.267Z,35.36
2018-07-20T08:14:33.246Z,35.56
2018-07-20T08:15:33.231Z,35.68
2018-07-20T08:16:33.191Z,35.77
2018-07-20T08:17:33.170Z,35.66
2018-07-20T08:18:33.144Z,36.34
2018-07-20T08:19:33.122Z,35.38
2018-07-20T08:20:33.096Z,34.89
2018-07-20T08:21:33.076Z,34.91
2018-07-20T08:22:33.089Z,34.81
2018-07-20T08:23:33.030Z,34.91
2018-07-20T08:24:32.992Z,34.03
2018-07-20T08:25:32.970Z,34.33
2018-07-20T08:26:32.949Z,34.34
2018-07-20T08:27:32.921Z,34.05
2018-07-20T08:28:32.902Z,34.11
2018-07-20T08:29:32.973Z,34.81
2018-07-20T08:30:32.854Z,35.01
2018-07-20T08:31:32.831Z,35.21
2018-07-20T08:32:32.801Z,35.40
2018-07-20T08:33:32.776Z,34.83
2018-07-20T08:34:32.756Z,34.44
2018-07-20T08:35:32.726Z,34.34
2018-07-20T08:36:32.706Z,34.26
2018-07-20T08:37:32.680Z,34.16
2018-07-20T08:38:32.677Z,33.50
2018-07-20T08:39:32.629Z,33.10
2018-07-20T08:40:32.607Z,34.18
2018-07-20T08:41:32.583Z,34.20
2018-07-20T08:42:32.558Z,33.31
2018-07-20T08:43:32.534Z,33.04
2018-07-20T08:44:32.525Z,32.95
2018-07-20T08:45:32.489Z,32.94
2018-07-20T08:46:32.499Z,32.94
2018-07-20T08:47:32.435Z,33.53
2018-07-20T08:48:32.411Z,33.23
2018-07-20T08:49:32.385Z,32.95
2018-07-20T08:50:32.363Z,32.76
2018-07-20T08:51:32.350Z,32.27
2018-07-20T08:52:32.317Z,31.68
2018-07-20T08:53:32.289Z,31.70
2018-07-20T08:54:32.269Z,31.40
2018-07-20T08:55:32.246Z,31.51
2018-07-20T08:56:32.222Z,31.01
2018-07-20T08:57:32.199Z,31.30
2018-07-20T08:58:32.185Z,30.91
2018-07-20T08:59:32.152Z,31.01
2018-07-20T09:00:32.126Z,31.70
2018-07-20T09:01:32.104Z,31.99
2018-07-20T09:02:32.081Z,31.90
2018-07-20T09:03:32.108Z,31.04
2018-07-20T09:04:32.036Z,31.13
2018-07-20T09:05:32.008Z,31.41
2018-07-20T09:06:31.985Z,30.93
2018-07-20T09:07:31.959Z,30.91
2018-07-20T09:08:31.936Z,30.91
2018-07-20T09:09:31.913Z,30.43
2018-07-20T09:10:31.905Z,30.53
2018-07-20T09:11:31.873Z,30.14
2018-07-20T09:12:31.844Z,30.24
2018-07-20T09:13:31.885Z,29.75
2018-07-20T09:14:31.794Z,29.63
2018-07-20T09:15:31.777Z,30.82
2018-07-20T09:16:31.747Z,30.15
2018-07-20T09:17:31.723Z,30.27
2018-07-20T09:18:31.710Z,29.66
2018-07-20T09:19:31.679Z,29.58
2018-07-20T09:20:31.672Z,28.59
2018-07-20T09:21:31.630Z,28.69
2018-07-20T09:22:31.604Z,29.48
2018-07-20T09:23:31.579Z,29.89
2018-07-20T09:24:31.566Z,28.30
2018-07-20T09:25:31.537Z,29.00
2018-07-20T09:26:31.511Z,29.77
2018-07-20T09:27:31.489Z,28.81
2018-07-20T09:28:31.461Z,29.20
2018-07-20T09:29:31.443Z,27.85
2018-07-20T09:30:31.455Z,27.36
2018-07-20T09:31:31.400Z,27.19
2018-07-20T09:32:31.371Z,26.70
2018-07-20T09:33:31.348Z,26.70
2018-07-20T09:34:31.328Z,25.90
2018-07-20T09:35:31.305Z,25.23
2018-07-20T09:36:31.280Z,25.92
2018-07-20T09:37:31.262Z,25.44
2018-07-20T09:38:31.235Z,25.33
2018-07-20T09:39:31.207Z,25.13
2018-07-20T09:40:31.183Z,24.85
2018-07-20T09:41:31.173Z,24.96
2018-07-20T09:42:31.146Z,24.46
2018-07-20T09:43:31.119Z,24.86
2018-07-20T09:44:31.144Z,24.66
2018-07-20T09:45:31.072Z,24.77
2018-07-20T09:46:31.063Z,24.98
2018-07-20T09:47:31.022Z,23.91
2018-07-20T09:48:31.004Z,24.57
2018-07-20T09:49:30.978Z,25.08
2018-07-20T09:50:30.956Z,24.20
2018-07-20T09:51:30.936Z,24.29
2018-07-20T09:52:30.917Z,23.50
2018-07-20T09:53:30.888Z,23.02
2018-07-20T09:54:30.870Z,23.91
2018-07-20T09:55:30.849Z,22.83
2018-07-20T09:56:30.844Z,23.03
2018-07-20T09:57:30.796Z,22.66
2018-07-20T09:58:30.809Z,22.84
2018-07-20T09:59:30.803Z,22.95
2018-07-20T10:00:30.730Z,23.04
2018-07-20T10:01:30.719Z,22.66
2018-07-20T10:02:30.688Z,22.77
2018-07-20T10:03:30.667Z,22.27
2018-07-20T10:04:30.647Z,22.07
2018-07-20T10:05:30.622Z,21.59
2018-07-20T10:06:30.599Z,22.17
2018-07-20T10:07:30.573Z,21.59
2018-07-20T10:08:30.556Z,21.11
2018-07-20T10:09:30.529Z,20.31
2018-07-20T10:10:30.505Z,20.52
2018-07-20T10:11:30.530Z,20.31
2018-07-20T10:12:31.287Z,20.52
2018-07-20T10:13:30.445Z,20.13
2018-07-20T10:14:30.429Z,19.62
2018-07-20T10:15:30.408Z,21.10
2018-07-20T10:16:30.375Z,20.11
2018-07-20T10:17:30.357Z,20.03
2018-07-20T10:18:30.338Z,20.24
2018-07-20T10:19:30.332Z,20.13
2018-07-20T10:20:30.293Z,20.03
2018-07-20T10:21:30.269Z,20.13
2018-07-20T10:22:30.498Z,19.64
2018-07-20T10:23:30.228Z,19.54
2018-07-20T10:24:30.200Z,19.75
2018-07-20T10:25:30.236Z,19.26
2018-07-20T10:26:30.160Z,19.07
2018-07-20T10:27:30.140Z,18.37
2018-07-20T10:28:30.115Z,18.07
2018-07-20T10:29:30.100Z,18.76
2018-07-20T10:30:30.079Z,18.16
2018-07-20T10:31:30.059Z,18.35
2018-07-20T10:32:30.033Z,19.43
2018-07-20T10:33:30.016Z,19.53
2018-07-20T10:34:29.991Z,20.31
2018-07-20T10:35:29.963Z,20.52
2018-07-20T10:36:29.947Z,20.23
2018-07-20T10:37:29.918Z,19.44
2018-07-20T10:38:29.901Z,19.74
2018-07-20T10:39:29.879Z,19.94
2018-07-20T10:40:29.876Z,19.03
2018-07-20T10:41:29.834Z,20.13
2018-07-20T10:42:29.810Z,19.43
2018-07-20T10:43:29.789Z,19.62
2018-07-20T10:44:29.769Z,19.42
2018-07-20T10:45:29.743Z,20.10
2018-07-20T10:46:29.724Z,20.00
2018-07-20T10:47:29.712Z,20.68
2018-07-20T10:48:29.678Z,21.26
2018-07-20T10:49:29.652Z,21.95
2018-07-20T10:50:29.631Z,21.06
2018-07-20T10:51:29.611Z,21.26
2018-07-20T10:52:29.589Z,20.87
2018-07-20T10:53:29.638Z,21.06
2018-07-20T10:54:29.543Z,21.66
2018-07-20T10:55:29.517Z,20.19
2018-07-20T10:56:29.492Z,20.40
2018-07-20T10:57:29.474Z,20.19
2018-07-20T10:58:29.454Z,20.40
2018-07-20T10:59:29.433Z,20.41
2018-07-20T11:00:29.404Z,19.81
2018-07-20T11:01:29.439Z,20.11
2018-07-20T11:02:29.358Z,19.23
2018-07-20T11:03:29.340Z,19.42
2018-07-20T11:04:29.308Z,19.62
2018-07-20T11:05:29.293Z,19.64
2018-07-20T11:06:29.287Z,19.22
2018-07-20T11:07:29.255Z,20.30
2018-07-20T11:08:29.222Z,20.10
2018-07-20T11:09:29.200Z,20.38
2018-07-20T11:10:29.185Z,20.29
2018-07-20T11:11:29.157Z,20.00
2018-07-20T11:12:29.130Z,19.81
2018-07-20T11:13:29.108Z,19.62
2018-07-20T11:14:29.092Z,19.34
2018-07-20T11:15:29.067Z,19.14
2018-07-20T11:16:29.071Z,18.63
2018-07-20T11:17:29.021Z,18.84
2018-07-20T11:18:28.997Z,19.34
2018-07-20T11:19:28.972Z,19.35
2018-07-20T11:20:28.951Z,19.25
2018-07-20T11:21:28.939Z,18.96
2018-07-20T11:22:28.915Z,17.86
2018-07-20T11:23:28.908Z,18.55
2018-07-20T11:24:28.868Z,18.18
2018-07-20T11:25:29.744Z,17.79
2018-07-20T11:26:28.871Z,17.08
2018-07-20T11:27:28.800Z,17.40
2018-07-20T11:28:28.788Z,17.21
2018-07-20T11:29:28.757Z,16.82
2018-07-20T11:30:28.732Z,16.42
2018-07-20T11:31:28.707Z,16.52
2018-07-20T11:32:28.686Z,16.42
2018-07-20T11:33:28.673Z,16.43
2018-07-20T11:34:28.646Z,15.65
2018-07-20T11:35:28.629Z,15.46
2018-07-20T11:36:28.616Z,15.26
2018-07-20T11:37:28.585Z,15.94
2018-07-20T11:38:28.571Z,15.93
2018-07-20T11:39:28.542Z,15.53
2018-07-20T11:40:28.516Z,15.34
2018-07-20T11:41:28.500Z,15.16
2018-07-20T11:42:28.484Z,15.36
2018-07-20T11:43:28.456Z,15.36
2018-07-20T11:44:28.438Z,15.26
2018-07-20T11:45:28.416Z,15.55
2018-07-20T11:46:28.401Z,15.14
2018-07-20T11:47:28.378Z,15.25
2018-07-20T11:48:28.350Z,15.14
2018-07-20T11:49:28.335Z,15.55
2018-07-20T11:50:28.332Z,15.53
2018-07-20T11:51:28.289Z,15.34
2018-07-20T11:52:28.267Z,16.03
2018-07-20T11:53:28.277Z,16.60
2018-07-20T11:54:28.228Z,16.68
2018-07-20T11:55:28.206Z,17.97
2018-07-20T11:56:28.512Z,17.68
2018-07-20T11:57:28.479Z,17.86
2018-07-20T11:58:28.144Z,18.05
2018-07-20T11:59:28.121Z,16.89
2018-07-20T12:00:28.100Z,17.60
2018-07-20T12:01:28.079Z,16.71
2018-07-20T12:02:28.074Z,16.93
2018-07-20T12:03:28.062Z,15.34
2018-07-20T12:04:28.122Z,15.34
2018-07-20T12:05:27.996Z,15.34
2018-07-20T12:06:27.975Z,15.36
2018-07-20T12:07:27.965Z,14.47
2018-07-20T12:08:27.930Z,14.68
2018-07-20T12:09:27.911Z,14.09
2018-07-20T12:10:27.887Z,13.77
2018-07-20T12:11:27.901Z,14.09
2018-07-20T12:12:27.850Z,14.59
2018-07-20T12:13:27.829Z,14.47
2018-07-20T12:14:27.809Z,14.87
2018-07-20T12:15:27.793Z,14.98
2018-07-20T12:16:27.775Z,14.59
2018-07-20T12:17:27.866Z,14.79
2018-07-20T12:18:27.733Z,14.49
2018-07-20T12:19:27.725Z,15.07
2018-07-20T12:20:27.694Z,15.08
2018-07-20T12:21:27.672Z,14.98
2018-07-20T12:22:27.654Z,14.39
2018-07-20T12:23:27.633Z,14.38
2018-07-20T12:24:29.443Z,14.20
2018-07-20T12:25:27.622Z,13.80
2018-07-20T12:26:27.576Z,13.61
2018-07-20T12:27:27.553Z,12.91
2018-07-20T12:28:27.532Z,13.11
2018-07-20T12:29:27.515Z,13.12
2018-07-20T12:30:27.497Z,13.41
2018-07-20T12:31:27.509Z,14.29
2018-07-20T12:32:27.460Z,13.90
2018-07-20T12:33:27.437Z,13.20
2018-07-20T12:34:27.410Z,13.91
2018-07-20T12:35:27.394Z,13.40
2018-07-20T12:36:27.522Z,14.09
2018-07-20T12:37:27.356Z,14.19
2018-07-20T12:38:27.331Z,13.87
2018-07-20T12:39:27.319Z,14.18
2018-07-20T12:40:27.323Z,13.79
2018-07-20T12:41:27.272Z,13.89
2018-07-20T12:42:27.258Z,13.78
2018-07-20T12:43:27.242Z,14.75
2018-07-20T12:44:27.216Z,15.45
2018-07-20T12:45:27.201Z,15.73
2018-07-20T12:46:27.205Z,16.13
2018-07-20T12:47:27.167Z,15.73
2018-07-20T12:48:27.138Z,15.34
2018-07-20T12:49:27.115Z,15.83
2018-07-20T12:50:27.100Z,15.53
2018-07-20T12:51:27.076Z,15.31
2018-07-20T12:52:27.051Z,15.31